Time;durP1;ratioP1;P1;durP2;ratioP2;P2;SDS_P1;SDS_P2;PMS_P1;PMS_P2;Temp;Humidity;BMP_temperature;BMP_pressure;BME280_temperature;BME280_humidity;BME280_pressure;Samples;Min_cycle;Max_cycle;Signal;HPM_P1;HPM_P2
2022/12/26 00:00:38;;;;;;;13.70;7.37;;;;;;;3.91;77.86;102277.34;1790035;80;25707;-64
2022/12/26 00:03:06;;;;;;;12.07;9.08;;;;;;;3.94;78.03;102269.73;1790685;80;25811;-64
2022/12/26 00:05:37;;;;;;;14.85;8.95;;;;;;;3.98;78.29;102259.36;1790761;80;25806;-64
2022/12/26 00:08:06;;;;;;;14.73;8.05;;;;;;;4.02;78.39;102257.85;1794159;79;25851;-64
2022/12/26 00:10:33;;;;;;;11.10;7.70;;;;;;;4.03;78.22;102250.27;1794037;80;27513;-64
2022/12/26 00:13:00;;;;;;;13.98;8.25;;;;;;;4.05;78.40;102244.44;1793908;80;25842;-64
2022/12/26 00:15:27;;;;;;;11.75;7.37;;;;;;;4.11;78.48;102250.00;1789667;80;25718;-64
2022/12/26 00:17:54;;;;;;;14.68;7.90;;;;;;;4.13;78.29;102248.12;1783600;80;26500;-64
2022/12/26 00:20:21;;;;;;;13.08;7.90;;;;;;;4.16;78.39;102259.14;1783069;80;25671;-64
2022/12/26 00:22:48;;;;;;;9.30;6.55;;;;;;;4.23;78.66;102259.31;1783184;79;27571;-64
2022/12/26 00:25:15;;;;;;;12.00;7.42;;;;;;;4.33;78.77;102263.37;1784801;80;25731;-63
2022/12/26 00:27:42;;;;;;;11.90;7.70;;;;;;;4.42;78.78;102258.13;1790765;80;25801;-64
2022/12/26 00:30:10;;;;;;;10.08;7.40;;;;;;;4.50;78.57;102253.36;1790585;80;25809;-64
2022/12/26 00:32:37;;;;;;;12.40;6.85;;;;;;;4.56;78.67;102251.41;1786832;80;25780;-64
2022/12/26 00:35:05;;;;;;;13.13;7.55;;;;;;;4.59;78.19;102254.81;1816060;77;27452;-64
2022/12/26 00:37:32;;;;;;;11.70;7.67;;;;;;;4.62;78.08;102248.48;1818938;78;25728;-64
2022/12/26 00:39:59;;;;;;;9.78;6.67;;;;;;;4.64;77.95;102240.83;1786556;80;25734;-64
2022/12/26 00:42:27;;;;;;;8.95;6.20;;;;;;;4.65;77.54;102232.38;1817560;78;25717;-64
2022/12/26 00:44:54;;;;;;;9.50;6.30;;;;;;;4.64;77.13;102230.16;1786697;80;25470;-65
2022/12/26 00:47:21;;;;;;;9.15;6.62;;;;;;;4.57;76.45;102224.68;1817958;78;27469;-64
2022/12/26 00:49:48;;;;;;;10.15;6.80;;;;;;;4.51;76.44;102227.13;1818550;78;25935;-64
2022/12/26 00:52:14;;;;;;;11.97;7.78;;;;;;;4.48;76.60;102236.56;1818652;78;25606;-64
2022/12/26 00:54:41;;;;;;;13.18;8.28;;;;;;;4.36;76.21;102232.59;1818871;78;26710;-64
2022/12/26 00:57:07;;;;;;;12.63;8.53;;;;;;;4.23;75.91;102239.33;1818265;78;25409;-64
2022/12/26 00:59:34;;;;;;;13.98;8.95;;;;;;;3.98;75.61;102240.27;1816309;78;27502;-64
2022/12/26 01:02:36;;;;;;;13.43;8.95;;;;;;;3.79;75.79;102249.38;1786710;80;25714;-64
2022/12/26 01:04:30;;;;;;;14.03;8.83;;;;;;;3.66;76.24;102250.28;1813637;78;25706;-64
2022/12/26 01:06:57;;;;;;;14.07;9.20;;;;;;;3.65;76.66;102257.00;1813992;78;25805;-64
2022/12/26 01:09:23;;;;;;;12.98;8.23;;;;;;;3.56;76.78;102253.75;1818950;78;26029;-64
2022/12/26 01:11:51;;;;;;;12.98;8.58;;;;;;;3.51;77.01;102257.02;1818871;78;28544;-64
2022/12/26 01:14:17;;;;;;;14.38;8.68;;;;;;;3.50;77.14;102258.41;1818452;78;26254;-64
2022/12/26 01:16:46;;;;;;;12.25;8.45;;;;;;;3.51;77.32;102250.84;1818838;78;25595;-64
2022/12/26 01:19:13;;;;;;;12.58;8.25;;;;;;;3.54;77.46;102251.59;1818567;78;25877;-64
2022/12/26 01:21:41;;;;;;;12.82;8.45;;;;;;;3.47;77.25;102244.76;1818593;78;25946;-64
2022/12/26 01:24:09;;;;;;;14.90;8.70;;;;;;;3.35;77.35;102249.16;1815708;78;27530;-64
2022/12/26 01:26:36;;;;;;;13.95;9.03;;;;;;;3.31;77.60;102252.39;1818825;78;25839;-64
2022/12/26 01:29:03;;;;;;;11.43;8.18;;;;;;;3.34;77.80;102242.98;1798881;78;25785;-64
2022/12/26 01:31:29;;;;;;;15.08;9.00;;;;;;;3.31;77.87;102245.73;1804314;78;26253;-64
2022/12/26 01:33:56;;;;;;;15.32;8.10;;;;;;;3.29;78.02;102250.23;1818781;78;25744;-64
2022/12/26 01:36:23;;;;;;;13.40;8.05;;;;;;;3.31;78.18;102251.06;1818743;78;28373;-64
2022/12/26 01:38:50;;;;;;;12.28;7.78;;;;;;;3.31;78.29;102258.19;1818752;78;25733;-64
2022/12/26 01:41:18;;;;;;;9.30;6.72;;;;;;;3.29;78.36;102257.77;1818771;78;25825;-64
2022/12/26 01:44:05;;;;;;;12.60;7.72;;;;;;;3.23;78.42;102258.44;1819070;78;25893;-64
2022/12/26 01:46:46;;;;;;;12.18;7.60;;;;;;;3.16;78.46;102260.42;1815256;78;25694;-64
2022/12/26 01:49:21;;;;;;;10.23;7.28;;;;;;;3.12;78.54;102259.66;1818688;78;27567;-65
2022/12/26 01:51:55;;;;;;;11.93;7.50;;;;;;;3.13;78.63;102259.22;1818850;78;25729;-64
2022/12/26 01:54:24;;;;;;;12.07;7.92;;;;;;;3.20;78.88;102261.19;1817738;77;25710;-64
2022/12/26 01:56:52;;;;;;;10.45;7.35;;;;;;;3.33;79.25;102252.33;1818753;78;26597;-64
2022/12/26 01:59:23;;;;;;;12.68;7.50;;;;;;;3.48;79.50;102249.16;1813358;78;25821;-64
2022/12/26 02:01:52;;;;;;;10.03;7.28;;;;;;;3.64;79.63;102244.61;1754106;81;27661;-65
2022/12/26 02:07:13;;;;;;;10.85;6.95;;;;;;;3.86;79.21;102240.23;1786600;77;25702;-64
2022/12/26 02:09:40;;;;;;;11.55;7.42;;;;;;;3.91;78.78;102236.07;1807942;78;25712;-64
2022/12/26 02:12:29;;;;;;;11.08;7.40;;;;;;;3.92;78.55;102237.81;1819103;78;25704;-64
2022/12/26 02:14:57;;;;;;;12.28;7.75;;;;;;;3.98;78.91;102243.37;1818003;78;28165;-64
2022/12/26 02:17:27;;;;;;;10.20;7.40;;;;;;;4.03;78.69;102254.27;1786632;79;26198;-64
2022/12/26 02:20:23;;;;;;;12.40;8.08;;;;;;;4.04;78.32;102250.69;1818501;78;25707;-64
2022/12/26 02:23:23;;;;;;;10.55;7.60;;;;;;;4.10;78.20;102247.37;1756055;80;25959;-64
2022/12/26 02:26:47;;;;;;;13.13;8.10;;;;;;;4.05;77.70;102236.89;1817533;78;25761;-64
2022/12/26 02:29:53;;;;;;;11.18;7.25;;;;;;;3.92;76.87;102235.15;1818794;78;28236;-64
2022/12/26 02:32:34;;;;;;;12.25;7.55;;;;;;;3.59;76.49;102241.64;1818448;78;25739;-64
2022/12/26 02:35:27;;;;;;;11.97;7.90;;;;;;;3.44;77.10;102240.42;1782088;78;25786;-64
2022/12/26 02:38:24;;;;;;;12.93;8.35;;;;;;;3.41;77.25;102235.19;1802049;78;25867;-64
2022/12/26 02:41:14;;;;;;;12.40;8.85;;;;;;;3.42;77.58;102231.61;1786104;80;27273;-64
2022/12/26 02:47:21;;;;;;;12.03;7.80;;;;;;;3.32;77.57;102224.88;1784078;80;25736;-64
2022/12/26 03:14:18;;;;;;;13.48;7.22;;;;;;;3.50;78.70;102214.50;1813930;78;27527;-64
2022/12/26 03:19:56;;;;;;;12.28;7.65;;;;;;;3.67;79.09;102219.23;1813721;79;25764;-64
2022/12/26 03:22:29;;;;;;;11.22;7.62;;;;;;;3.75;79.21;102220.67;1811888;79;26251;-64
2022/12/26 03:26:38;;;;;;;11.40;7.60;;;;;;;3.85;79.29;102212.34;1812670;79;25441;-65
2022/12/26 03:27:06;;;;;;;11.30;7.75;;;;;;;3.93;79.17;102226.23;1812196;79;27447;-64
2022/12/26 03:32:19;;;;;;;11.00;7.03;;;;;;;4.00;78.74;102221.56;1816585;78;25690;-64
2022/12/26 03:34:46;;;;;;;9.58;6.83;;;;;;;4.04;78.74;102228.48;1805285;78;25763;-63
2022/12/26 03:37:36;;;;;;;13.22;7.17;;;;;;;4.11;78.60;102230.47;1808812;78;25686;-64
2022/12/26 04:19:37;;;;;;;10.58;7.37;;;;;;;3.47;76.66;102251.41;1778538;80;25831;-63
2022/12/26 04:45:19;;;;;;;8.60;5.70;;;;;;;3.65;77.59;102219.27;1785175;79;26353;-64
2022/12/26 04:50:31;;;;;;;11.00;6.90;;;;;;;3.82;77.59;102212.45;1791616;80;25830;-64
2022/12/26 04:52:58;;;;;;;11.88;6.83;;;;;;;3.85;77.36;102213.23;1793878;79;27484;-63
2022/12/26 04:55:28;;;;;;;10.75;6.70;;;;;;;3.87;77.10;102203.37;1791532;80;25802;-64
2022/12/26 04:57:56;;;;;;;9.13;6.65;;;;;;;3.88;76.92;102206.92;1794317;78;25745;-64
2022/12/26 05:00:26;;;;;;;13.58;6.97;;;;;;;3.90;77.05;102215.69;1791488;80;25796;-64
2022/12/26 05:11:31;;;;;;;15.18;10.80;;;;;;;3.95;75.77;102222.17;1795933;79;25773;-64
2022/12/26 05:13:59;;;;;;;16.77;11.30;;;;;;;3.87;75.07;102220.67;1813882;78;25726;-64
2022/12/26 05:30:28;;;;;;;9.85;7.30;;;;;;;3.50;75.15;102259.73;1781065;80;25704;-63
2022/12/26 05:35:41;;;;;;;9.80;8.08;;;;;;;3.40;75.54;102268.03;1781188;80;25757;-63
2022/12/26 05:38:10;;;;;;;12.70;7.83;;;;;;;3.39;75.29;102270.76;1794055;79;25790;-63
2022/12/26 05:40:37;;;;;;;10.63;6.67;;;;;;;3.38;75.33;102267.69;1813599;79;25750;-63
2022/12/26 05:43:05;;;;;;;12.20;8.03;;;;;;;3.37;75.32;102275.25;1813522;79;25771;-63
2022/12/26 05:45:32;;;;;;;44.23;22.13;;;;;;;3.38;75.42;102275.67;1813917;79;28179;-64
2022/12/26 05:48:00;;;;;;;11.03;7.03;;;;;;;3.39;75.43;102282.25;1790180;78;25802;-63
2022/12/26 05:50:27;;;;;;;8.90;5.72;;;;;;;3.38;75.56;102266.36;1781170;80;25971;-63
2022/12/26 05:52:57;;;;;;;9.08;6.45;;;;;;;3.38;75.67;102260.56;1780831;79;25914;-63
2022/12/26 05:55:24;;;;;;;11.22;6.65;;;;;;;3.39;75.81;102258.31;1781256;80;25738;-63
2022/12/26 05:57:51;;;;;;;9.83;5.70;;;;;;;3.42;76.05;102264.87;1780885;79;27650;-63
2022/12/26 06:00:18;;;;;;;8.50;6.28;;;;;;;3.44;76.02;102260.37;1781215;80;25750;-63
2022/12/26 06:02:45;;;;;;;9.03;7.22;;;;;;;3.47;75.99;102255.40;1780833;79;25699;-63
2022/12/26 06:05:12;;;;;;;9.83;6.83;;;;;;;3.49;75.90;102257.55;1781418;79;25893;-64
2022/12/26 06:07:39;;;;;;;10.05;6.87;;;;;;;3.50;75.94;102241.11;1782582;79;25825;-63
2022/12/26 06:10:07;;;;;;;10.82;6.35;;;;;;;3.52;76.01;102224.64;1802834;79;27628;-63
2022/12/26 06:12:34;;;;;;;8.70;6.28;;;;;;;3.52;75.75;102222.83;1812447;79;25685;-63
2022/12/26 06:15:01;;;;;;;8.35;6.05;;;;;;;3.50;75.62;102231.80;1781683;80;25988;-63
2022/12/26 06:17:29;;;;;;;10.28;6.45;;;;;;;3.45;75.68;102234.14;1787302;79;26530;-63
2022/12/26 06:19:55;;;;;;;9.50;6.58;;;;;;;3.45;75.73;102250.11;1794282;79;25705;-63
2022/12/26 06:22:22;;;;;;;11.53;7.03;;;;;;;3.45;75.84;102250.11;1788769;79;28322;-63
2022/12/26 06:24:49;;;;;;;10.58;6.80;;;;;;;3.43;75.67;102244.00;1766086;80;25826;-64
2022/12/26 06:27:16;;;;;;;9.88;6.42;;;;;;;3.42;75.73;102245.36;1756066;81;25782;-63
2022/12/26 06:29:43;;;;;;;12.28;7.47;;;;;;;3.41;75.63;102243.61;1754555;81;25794;-63
2022/12/26 06:32:10;;;;;;;15.20;8.58;;;;;;;3.36;75.48;102237.13;1755838;81;25782;-65
2022/12/26 06:34:37;;;;;;;10.55;7.17;;;;;;;3.31;75.55;102230.25;1754447;80;29687;-63
2022/12/26 06:37:06;;;;;;;10.80;7.17;;;;;;;3.27;75.79;102220.19;1770183;79;25995;-64
2022/12/26 06:39:33;;;;;;;11.60;7.22;;;;;;;3.28;75.87;102209.48;1810853;79;25778;-64
2022/12/26 06:41:59;;;;;;;13.13;7.92;;;;;;;3.27;75.81;102206.89;1814431;79;25910;-63
2022/12/26 06:44:27;;;;;;;16.67;11.05;;;;;;;3.27;75.90;102210.88;1814269;79;25832;-64
2022/12/26 06:46:53;;;;;;;24.27;14.15;;;;;;;3.28;76.01;102205.49;1814141;79;25886;-63
2022/12/26 06:49:20;;;;;;;25.10;14.70;;;;;;;3.29;75.97;102196.59;1814120;79;25865;-63
2022/12/26 06:51:47;;;;;;;21.95;14.13;;;;;;;3.31;75.87;102201.84;1814068;79;25742;-64
2022/12/26 06:54:14;;;;;;;20.15;12.65;;;;;;;3.29;75.82;102212.55;1813094;79;25783;-64
2022/12/26 06:56:40;;;;;;;19.23;12.00;;;;;;;3.32;75.83;102210.72;1783774;80;25778;-64
2022/12/26 06:59:09;;;;;;;15.43;10.88;;;;;;;3.35;75.99;102200.84;1785478;80;27505;-65
2022/12/26 07:01:36;;;;;;;13.05;9.55;;;;;;;3.36;75.92;102203.88;1785590;80;25816;-64
2022/12/26 07:04:05;;;;;;;12.53;9.45;;;;;;;3.35;75.92;102211.48;1801246;79;25717;-64
2022/12/26 07:06:38;;;;;;;9.63;7.25;;;;;;;3.29;75.79;102208.56;1782268;80;25835;-65
2022/12/26 07:09:09;;;;;;;11.05;7.67;;;;;;;3.28;75.64;102199.29;1786001;80;25739;-65
2022/12/26 07:11:40;;;;;;;12.45;8.83;;;;;;;3.24;75.56;102191.88;1785720;80;28183;-63
2022/12/26 07:14:07;;;;;;;11.70;8.90;;;;;;;3.20;75.48;102192.04;1784954;79;25762;-63
2022/12/26 07:16:36;;;;;;;15.48;9.43;;;;;;;3.19;75.57;102186.31;1786401;80;25696;-63
2022/12/26 07:19:03;;;;;;;12.93;9.13;;;;;;;3.13;75.64;102188.27;1785887;80;26808;-63
2022/12/26 07:21:30;;;;;;;12.18;8.73;;;;;;;3.10;75.87;102190.17;1786615;80;26742;-63
2022/12/26 07:23:58;;;;;;;13.30;9.05;;;;;;;3.09;76.01;102183.11;1790218;80;28542;-63
2022/12/26 07:26:25;;;;;;;12.07;8.60;;;;;;;3.13;76.12;102176.78;1789929;80;25718;-63
2022/12/26 07:28:54;;;;;;;10.45;8.15;;;;;;;3.15;76.35;102176.72;1790342;80;25786;-63
2022/12/26 07:31:22;;;;;;;11.43;8.58;;;;;;;3.12;76.42;102177.23;1790170;80;25785;-64
2022/12/26 07:33:52;;;;;;;12.28;8.03;;;;;;;3.10;76.50;102178.20;1790394;80;25738;-63
2022/12/26 07:36:20;;;;;;;11.45;8.40;;;;;;;3.10;76.80;102176.41;1811974;78;27460;-64
2022/12/26 07:38:47;;;;;;;14.80;9.73;;;;;;;3.05;76.85;102169.06;1804929;78;25624;-63
2022/12/26 07:44:00;;;;;;;11.45;7.80;;;;;;;3.08;77.21;102178.71;1808060;78;25896;-63
2022/12/26 07:46:27;;;;;;;14.18;9.40;;;;;;;3.10;77.05;102172.41;1820641;78;25742;-64
2022/12/26 07:48:54;;;;;;;12.82;8.45;;;;;;;3.07;76.90;102167.22;1822427;78;27453;-64
2022/12/26 07:51:21;;;;;;;12.82;8.83;;;;;;;3.05;76.85;102167.73;1789381;79;25847;-63
2022/12/26 07:53:48;;;;;;;11.88;8.58;;;;;;;3.08;77.20;102176.05;1788286;80;25728;-64
2022/12/26 07:56:15;;;;;;;11.33;8.75;;;;;;;3.11;77.22;102181.28;1792656;77;25949;-64
2022/12/26 07:58:42;;;;;;;14.75;9.65;;;;;;;3.15;77.49;102178.91;1785092;80;26206;-64
2022/12/26 08:01:09;;;;;;;16.85;10.18;;;;;;;3.18;77.52;102185.45;1784687;80;27463;-64
2022/12/26 08:03:36;;;;;;;14.53;9.48;;;;;;;3.28;77.70;102180.22;1784151;80;25790;-64
2022/12/26 08:06:03;;;;;;;12.85;9.03;;;;;;;3.32;77.43;102181.45;1818343;77;25523;-64
2022/12/26 08:08:30;;;;;;;16.15;10.65;;;;;;;3.34;77.38;102179.59;1786692;78;25796;-64
2022/12/26 08:11:04;;;;;;;20.50;13.10;;;;;;;3.40;77.25;102172.74;1784688;79;25737;-64
2022/12/26 08:13:32;;;;;;;16.93;10.65;;;;;;;3.45;77.20;102163.64;1819191;78;28143;-64
2022/12/26 08:16:05;;;;;;;19.25;11.73;;;;;;;3.52;77.12;102151.47;1818595;78;25707;-64
2022/12/26 08:18:32;;;;;;;16.63;11.10;;;;;;;3.61;76.81;102148.47;1819023;78;25749;-64
2022/12/26 08:20:59;;;;;;;18.07;12.15;;;;;;;3.67;76.78;102152.22;1818727;78;25950;-64
2022/12/26 08:23:26;;;;;;;16.07;10.53;;;;;;;3.80;76.63;102155.77;1818594;78;25714;-64
2022/12/26 08:25:53;;;;;;;12.10;9.13;;;;;;;3.88;76.47;102147.88;1818643;78;27469;-64
2022/12/26 08:28:20;;;;;;;11.78;8.90;;;;;;;3.95;75.76;102147.18;1818818;78;25693;-64
2022/12/26 08:30:49;;;;;;;15.03;8.55;;;;;;;4.00;75.31;102142.53;1818860;78;25794;-64
2022/12/26 08:33:16;;;;;;;12.80;9.23;;;;;;;4.05;75.41;102136.58;1817918;77;25847;-64
2022/12/26 08:35:43;;;;;;;15.03;10.30;;;;;;;4.12;75.32;102149.64;1786269;80;25701;-64
2022/12/26 08:38:11;;;;;;;10.60;7.92;;;;;;;4.17;75.44;102159.19;1815455;78;28456;-64
2022/12/26 08:40:38;;;;;;;10.35;8.03;;;;;;;4.25;75.28;102166.00;1786381;80;25791;-64
2022/12/26 08:43:05;;;;;;;11.80;8.88;;;;;;;4.30;75.07;102163.56;1793118;78;25738;-64
2022/12/26 08:45:33;;;;;;;12.18;8.15;;;;;;;4.35;74.97;102164.72;1800186;78;25703;-64
2022/12/26 08:48:01;;;;;;;11.70;8.73;;;;;;;4.38;74.62;102162.80;1818671;78;27286;-64
2022/12/26 08:50:28;;;;;;;13.08;8.50;;;;;;;4.38;74.18;102165.94;1802599;78;28424;-64
2022/12/26 08:52:55;;;;;;;8.40;7.05;;;;;;;4.38;74.04;102154.80;1780960;77;25821;-64
2022/12/26 08:55:22;;;;;;;13.48;9.40;;;;;;;4.32;73.59;102158.17;1818454;78;25675;-64
2022/12/26 08:57:49;;;;;;;13.38;8.90;;;;;;;4.34;74.16;102154.98;1818788;78;25791;-64
2022/12/26 09:00:17;;;;;;;13.70;8.73;;;;;;;4.40;74.24;102157.39;1818698;78;25777;-64
2022/12/26 09:02:44;;;;;;;13.50;8.88;;;;;;;4.48;74.23;102146.44;1818721;78;27674;-64
2022/12/26 09:05:11;;;;;;;17.85;9.03;;;;;;;4.53;74.33;102139.10;1818647;78;25781;-64
2022/12/26 09:07:38;;;;;;;13.08;9.00;;;;;;;4.62;74.50;102131.20;1818579;78;25614;-64
2022/12/26 09:10:06;;;;;;;15.28;9.13;;;;;;;4.67;74.08;102130.09;1818930;78;25881;-64
2022/12/26 09:12:34;;;;;;;17.25;10.43;;;;;;;4.69;74.32;102113.56;1818631;78;25724;-64
2022/12/26 09:15:01;;;;;;;16.82;10.50;;;;;;;4.79;74.24;102103.84;1818743;78;27514;-64
2022/12/26 09:17:28;;;;;;;14.45;11.03;;;;;;;4.92;74.38;102111.70;1817308;77;25989;-64
2022/12/26 09:19:55;;;;;;;18.23;11.25;;;;;;;4.99;74.47;102118.50;1803661;77;25786;-64
2022/12/26 09:25:09;;;;;;;15.25;10.75;;;;;;;5.30;73.92;102095.81;1756524;81;25775;-64
2022/12/26 09:27:36;;;;;;;17.42;10.93;;;;;;;5.45;73.26;102081.36;1764623;80;27475;-65
2022/12/26 09:30:05;;;;;;;20.30;12.78;;;;;;;5.41;72.23;102072.62;1756408;81;26013;-64
2022/12/26 09:32:34;;;;;;;16.40;12.03;;;;;;;5.47;72.03;102065.66;1765699;80;25897;-65
2022/12/26 09:35:01;;;;;;;17.00;11.30;;;;;;;5.42;71.95;102061.02;1770889;80;26511;-64
2022/12/26 09:37:28;;;;;;;18.50;11.22;;;;;;;5.41;72.14;102069.11;1758537;80;25822;-64
2022/12/26 09:39:55;;;;;;;19.90;13.15;;;;;;;5.42;72.42;102058.35;1763404;80;28151;-64
2022/12/26 09:43:01;;;;;;;17.00;12.00;;;;;;;5.47;72.41;102051.47;1750537;81;25783;-64
2022/12/26 09:45:39;;;;;;;16.48;10.82;;;;;;;5.52;72.46;102052.59;1748367;82;25751;-63
2022/12/26 09:48:15;;;;;;;16.17;11.30;;;;;;;5.48;72.04;102055.39;1752984;80;27905;-64
2022/12/26 09:50:41;;;;;;;16.00;11.05;;;;;;;5.41;72.37;102044.61;1776102;80;25787;-64
2022/12/26 09:53:16;;;;;;;18.10;11.55;;;;;;;5.44;72.56;102054.27;1779438;80;28291;-64
2022/12/26 09:55:56;;;;;;;16.12;9.83;;;;;;;5.47;72.38;102060.33;1760581;81;25694;-64
2022/12/26 09:58:33;;;;;;;12.00;9.33;;;;;;;5.45;72.14;102058.67;1792233;79;25801;-64
2022/12/26 10:01:10;;;;;;;15.72;10.98;;;;;;;5.38;71.67;102063.41;1783694;80;25774;-63
2022/12/26 10:03:42;;;;;;;15.25;9.33;;;;;;;5.42;72.25;102073.52;1754980;80;25790;-64
2022/12/26 10:06:18;;;;;;;11.95;8.23;;;;;;;5.57;71.91;102083.47;1783500;80;46519;-64
2022/12/26 10:09:22;;;;;;;14.05;9.33;;;;;;;5.69;71.49;102064.67;1783602;80;25707;-64
2022/12/26 10:12:07;;;;;;;11.90;8.13;;;;;;;5.79;71.54;102065.09;1784045;80;25643;-64
2022/12/26 10:14:55;;;;;;;15.28;9.90;;;;;;;5.84;71.71;102059.08;1783913;80;25805;-63
2022/12/26 10:17:39;;;;;;;15.35;9.60;;;;;;;5.91;71.57;102051.16;1778229;80;25821;-64
2022/12/26 10:20:23;;;;;;;16.25;9.03;;;;;;;5.87;71.33;102042.03;1771093;80;27697;-63
2022/12/26 10:22:59;;;;;;;;;;;;;;;5.95;71.78;102035.39;1780491;79;25762;-63
2022/12/26 10:25:54;;;;;;;18.00;11.10;;;;;;;6.02;71.71;102044.46;1779684;80;25719;-63
2022/12/26 10:28:50;;;;;;;13.80;9.08;;;;;;;6.05;71.67;102051.84;1772764;80;26695;-63
2022/12/26 10:31:43;;;;;;;14.98;10.08;;;;;;;6.09;71.43;102056.57;1773923;80;25521;-63
2022/12/26 10:34:15;;;;;;;72.08;42.83;;;;;;;6.08;70.91;102060.18;1757035;80;27537;-64
2022/12/26 10:37:03;;;;;;;13.28;9.55;;;;;;;6.04;70.58;102055.94;1762630;80;25719;-64
2022/12/26 10:39:55;;;;;;;14.60;8.78;;;;;;;6.03;69.99;102059.55;1783716;80;25722;-65
2022/12/26 10:42:38;;;;;;;17.00;10.65;;;;;;;6.01;70.42;102069.44;1783387;80;25776;-63
2022/12/26 10:45:19;;;;;;;20.55;11.57;;;;;;;5.93;69.98;102070.65;1782253;80;25936;-63
2022/12/26 10:47:53;;;;;;;18.17;10.35;;;;;;;5.79;70.13;102059.30;1754495;81;27860;-63
2022/12/26 10:50:28;;;;;;;16.40;10.80;;;;;;;5.64;70.11;102052.02;1765580;80;25726;-63
2022/12/26 10:52:57;;;;;;;21.45;11.63;;;;;;;5.55;70.00;102042.63;1765838;81;25778;-63
2022/12/26 10:55:34;;;;;;;20.52;12.40;;;;;;;5.47;70.25;102033.63;1765685;80;25935;-64
2022/12/26 10:58:15;;;;;;;13.48;9.43;;;;;;;5.39;70.31;102021.12;1771349;80;25750;-63
2022/12/26 11:00:41;;;;;;;14.15;9.40;;;;;;;5.36;70.37;102020.40;1783362;80;28581;-63
2022/12/26 11:03:13;;;;;;;17.20;9.13;;;;;;;5.25;70.62;102017.75;1781472;79;25702;-63
2022/12/26 11:05:47;;;;;;;17.95;11.15;;;;;;;5.23;70.75;102016.98;1767100;80;25740;-64
2022/12/26 11:08:31;;;;;;;15.63;10.30;;;;;;;5.23;70.61;102006.31;1767582;81;25785;-64
2022/12/26 11:11:18;;;;;;;13.65;9.80;;;;;;;5.20;70.85;101998.44;1767829;79;25783;-64
2022/12/26 11:13:56;;;;;;;15.32;10.38;;;;;;;5.22;71.11;101991.69;1767528;81;27497;-64
2022/12/26 11:16:33;;;;;;;16.87;10.82;;;;;;;5.23;71.30;101992.97;1762704;80;25803;-64
2022/12/26 11:19:01;;;;;;;14.03;9.10;;;;;;;5.28;71.51;101986.09;1762471;80;25774;-64
2022/12/26 11:21:31;;;;;;;13.28;9.03;;;;;;;5.29;71.79;101976.67;1767518;80;25846;-64
2022/12/26 11:24:21;;;;;;;11.80;7.55;;;;;;;5.33;71.75;101959.56;1778150;79;25671;-64
2022/12/26 11:26:48;;;;;;;13.43;8.03;;;;;;;5.37;71.51;101962.09;1783859;80;27496;-64
2022/12/26 11:29:23;;;;;;;14.38;7.90;;;;;;;5.41;71.49;101967.21;1760125;80;25786;-64
2022/12/26 11:32:02;;;;;;;11.63;7.40;;;;;;;5.43;71.26;101964.45;1793528;80;25742;-64
2022/12/26 11:34:44;;;;;;;11.93;8.10;;;;;;;5.46;70.84;101966.99;1793646;80;25829;-64
2022/12/26 11:37:30;;;;;;;12.60;9.33;;;;;;;5.41;70.75;101953.02;1792353;78;25691;-64
2022/12/26 11:40:00;;;;;;;13.60;8.53;;;;;;;5.43;71.09;101945.78;1793796;80;28421;-65
2022/12/26 11:42:27;;;;;;;13.78;8.20;;;;;;;5.51;70.96;101930.29;1793517;80;26118;-64
2022/12/26 11:44:56;;;;;;;12.65;9.23;;;;;;;5.62;70.83;101915.92;1793533;80;25536;-64
2022/12/26 11:47:27;;;;;;;14.20;9.38;;;;;;;5.92;70.84;101920.67;1793250;80;26469;-64
2022/12/26 11:50:05;;;;;;;11.48;8.55;;;;;;;6.08;70.10;101911.91;1793520;80;25788;-64
2022/12/26 11:52:52;;;;;;;15.23;9.03;;;;;;;6.07;69.53;101915.06;1793868;80;27480;-65
2022/12/26 11:55:32;;;;;;;16.20;8.88;;;;;;;5.93;69.68;101918.86;1792781;80;25642;-63
2022/12/26 11:58:11;;;;;;;13.60;8.48;;;;;;;5.83;69.93;101915.80;1793138;80;25558;-63
2022/12/26 12:00:41;;;;;;;12.60;7.87;;;;;;;5.70;70.05;101914.67;1793558;79;25789;-63
2022/12/26 12:03:19;;;;;;;14.33;8.90;;;;;;;5.65;70.56;101918.90;1793705;80;25824;-64
2022/12/26 12:06:19;;;;;;;14.18;8.73;;;;;;;5.62;70.58;101913.73;1783806;78;27488;-63
2022/12/26 12:09:20;;;;;;;10.38;7.62;;;;;;;5.52;70.71;101909.30;1774655;78;25807;-64
2022/12/26 12:12:08;;;;;;;13.05;8.40;;;;;;;5.49;70.84;101906.32;1771456;80;25714;-64
2022/12/26 12:15:05;;;;;;;12.23;7.53;;;;;;;5.45;70.90;101897.20;1791591;80;25822;-64
2022/12/26 12:18:07;;;;;;;14.15;8.75;;;;;;;5.37;70.96;101901.60;1787092;80;25777;-64
2022/12/26 12:20:55;;;;;;;12.58;8.95;;;;;;;5.28;71.32;101902.89;1793706;79;28287;-63
2022/12/26 12:23:54;;;;;;;12.33;8.85;;;;;;;5.25;71.33;101890.17;1793325;80;25796;-64
2022/12/26 12:26:47;;;;;;;14.43;9.93;;;;;;;5.21;71.43;101887.24;1788932;80;25751;-64
2022/12/26 12:29:43;;;;;;;17.00;9.13;;;;;;;5.13;71.72;101887.63;1787809;80;25920;-64
2022/12/26 12:32:21;;;;;;;14.38;9.85;;;;;;;5.09;71.93;101882.92;1784772;80;25775;-64
2022/12/26 12:35:18;;;;;;;16.50;10.05;;;;;;;5.08;71.96;101873.19;1788973;78;28750;-64
2022/12/26 12:38:19;;;;;;;18.87;9.80;;;;;;;5.14;71.87;101874.70;1792777;80;25715;-63
2022/12/26 12:41:28;;;;;;;12.88;9.35;;;;;;;5.17;71.83;101876.74;1785836;79;25810;-64
2022/12/26 12:44:09;;;;;;;17.35;10.08;;;;;;;5.24;71.76;101872.44;1722587;81;25949;-64
2022/12/26 12:47:12;;;;;;;13.90;9.48;;;;;;;5.24;71.91;101874.66;1766558;80;25873;-64
2022/12/26 12:50:17;;;;;;;19.60;9.40;;;;;;;5.28;72.24;101878.03;1769171;80;27494;-64
2022/12/26 12:53:01;;;;;;;16.45;10.63;;;;;;;5.27;72.36;101875.81;1767419;80;25742;-64
2022/12/26 12:55:48;;;;;;;13.30;9.15;;;;;;;5.34;72.59;101871.05;1767594;80;25865;-64
2022/12/26 12:58:41;;;;;;;19.90;10.13;;;;;;;5.39;72.73;101868.16;1771777;79;25806;-64
2022/12/26 13:01:28;;;;;;;16.37;11.05;;;;;;;5.36;72.91;101867.84;1769960;79;26527;-64
2022/12/26 13:04:32;;;;;;;18.32;10.40;;;;;;;5.36;73.04;101873.19;1768487;79;28442;-64
2022/12/26 13:07:07;;;;;;;18.10;9.38;;;;;;;5.38;73.20;101875.77;1774596;79;25813;-64
2022/12/26 13:09:42;;;;;;;17.37;10.23;;;;;;;5.46;73.33;101885.59;1771685;80;25926;-64
2022/12/26 13:12:15;;;;;;;13.93;9.73;;;;;;;5.51;73.49;101885.36;1770360;79;25883;-64
2022/12/26 13:14:50;;;;;;;15.68;10.50;;;;;;;5.59;73.47;101884.52;1788946;77;27342;-64
2022/12/26 13:17:41;;;;;;;16.20;9.50;;;;;;;5.64;73.51;101874.00;1846221;77;27389;-64
2022/12/26 13:20:19;;;;;;;16.90;10.23;;;;;;;5.73;73.18;101868.69;1853664;77;25756;-64
2022/12/26 13:25:52;;;;;;;17.77;11.53;;;;;;;5.80;72.76;101858.53;1843335;77;25871;-64
2022/12/26 13:28:24;;;;;;;16.73;11.55;;;;;;;5.78;72.88;101861.78;1842647;77;25721;-64
2022/12/26 13:30:56;;;;;;;15.20;10.08;;;;;;;5.83;73.03;101860.20;1842651;77;27463;-64
2022/12/26 13:33:24;;;;;;;20.45;12.37;;;;;;;5.83;73.05;101855.72;1837292;77;26321;-64
2022/12/26 13:35:56;;;;;;;21.85;12.63;;;;;;;5.77;73.18;101851.55;1822672;77;25842;-64
2022/12/26 13:38:44;;;;;;;;;;;;;;;5.73;73.15;101852.66;1830271;77;25851;-64
2022/12/26 13:44:21;;;;;;;21.50;13.55;;;;;;;5.57;73.33;101848.56;1819805;77;27518;-64
2022/12/26 13:46:54;;;;;;;20.90;14.23;;;;;;;5.52;73.46;101837.23;1819457;77;25744;-64
2022/12/26 13:49:39;;;;;;;19.62;13.50;;;;;;;5.52;73.10;101837.23;1827683;77;26371;-64
2022/12/26 13:52:24;;;;;;;20.30;12.37;;;;;;;5.47;72.89;101837.46;1836500;77;25872;-63
2022/12/26 13:54:56;;;;;;;21.17;14.07;;;;;;;5.45;72.85;101835.37;1833992;77;25740;-64
2022/12/26 13:57:39;;;;;;;21.25;13.95;;;;;;;5.41;72.90;101834.27;1831817;77;27416;-64
2022/12/26 14:00:16;;;;;;;20.08;13.70;;;;;;;5.39;72.72;101826.31;1833591;77;25785;-64
2022/12/26 14:03:17;;;;;;;20.68;13.80;;;;;;;5.38;72.97;101827.73;1828580;77;25742;-64
2022/12/26 14:06:09;;;;;;;26.20;15.10;;;;;;;5.38;73.00;101827.73;1819375;77;26549;-64
2022/12/26 14:09:20;;;;;;;22.87;14.03;;;;;;;5.35;73.08;101821.20;1837564;77;25978;-64
2022/12/26 14:12:20;;;;;;;34.10;20.08;;;;;;;5.33;73.21;101819.47;1831429;77;28083;-64
2022/12/26 14:15:17;;;;;;;40.23;22.30;;;;;;;5.31;73.10;101813.83;1776069;77;25895;-64